10.06C
небольшая облачность
небольшая облачность
Дата и времяТемператураДавление, мм рт.ст.Влажность, %Осадки
МинимумМаксимум
16.08.2022 23:006.7C10.06C76281небольшая облачность
17.08.2022 02:007.09C9.07C76285переменная облачность
17.08.2022 05:007.63C8.44C76285небольшой дождь
17.08.2022 08:009.5C9.5C76480небольшой дождь
17.08.2022 11:0011.91C11.91C76367небольшой дождь
17.08.2022 14:0011.33C11.33C76468небольшой дождь
17.08.2022 17:0012.09C12.09C76550небольшой дождь
17.08.2022 20:009.03C9.03C76562пасмурно
17.08.2022 23:008C8C76566пасмурно
18.08.2022 02:006.96C6.96C76588небольшой дождь
18.08.2022 05:007.11C7.11C76594небольшой дождь
18.08.2022 08:007.71C7.71C76594пасмурно
18.08.2022 11:009.69C9.69C76786пасмурно
18.08.2022 14:0011.34C11.34C76879пасмурно
18.08.2022 17:0013.09C13.09C76872пасмурно
18.08.2022 20:0013.22C13.22C76871облачно с прояснениями
18.08.2022 23:0010.34C10.34C76782облачно с прояснениями
19.08.2022 02:009.17C9.17C76785пасмурно
19.08.2022 05:0010.06C10.06C76777пасмурно
19.08.2022 08:0011.91C11.91C76867пасмурно
19.08.2022 11:0012.36C12.36C76864пасмурно
19.08.2022 14:0014.51C14.51C76758пасмурно
19.08.2022 17:0015.53C15.53C76659пасмурно
19.08.2022 20:0011.29C11.29C76786пасмурно
19.08.2022 23:0010.92C10.92C76686пасмурно
20.08.2022 02:0010.46C10.46C76693небольшой дождь
20.08.2022 05:0010.59C10.59C76593небольшой дождь
20.08.2022 08:0010.41C10.41C76494небольшой дождь
20.08.2022 11:0012.23C12.23C76489небольшой дождь
20.08.2022 14:0016.96C16.96C76275пасмурно
20.08.2022 17:0020.31C20.31C76269небольшой дождь
20.08.2022 20:0016.38C16.38C76283небольшой дождь
20.08.2022 23:0011.97C11.97C76392облачно с прояснениями
21.08.2022 02:009.51C9.51C76491пасмурно
21.08.2022 05:008.6C8.6C76588пасмурно
21.08.2022 08:009.22C9.22C76671пасмурно
21.08.2022 11:0013.6C13.6C76743пасмурно
21.08.2022 14:0016.07C16.07C76737переменная облачность
21.08.2022 17:0015.77C15.77C76738облачно с прояснениями
21.08.2022 20:0011.07C11.07C76858переменная облачность
Дата и время наблюдения: 16.08.2022 22:00:54